Arock, Oregon
Current Conditions -  °F | °C
As of 10:35 PM on Tuesday 25 Nov 2014 (Local Time) from KMAN Reporting Station
Clear Clear  
Wind Chill: 11°   Ceiling: Unl
Heat Index: 11°   Visibility: 10mi
Dew Point:   Wind: 8mph
Humidity: 67%   Direction: 270°W
Pressure: 30.28"   Gusts: NA
Location:  42.91°N, 117.53°W
Report Text: KMAN 260535Z AUTO 27007KT 10SM CLR 11/05 A3028 RMK AO1
Loading
Personal Weather Stations






























Interactive Weather Map New forecast layout! Learn more

10-Day Weather Forecast

Advertisements
Track Severe Weather on mobile